createdAt,value
2022-11-18T00:01:08.935Z,1.79
2022-11-18T00:05:07.834Z,1.83
2022-11-18T00:09:06.751Z,1.91
2022-11-18T00:13:24.431Z,1.93
2022-11-18T00:17:23.534Z,1.93
2022-11-18T00:21:22.154Z,1.96
2022-11-18T00:25:20.572Z,2.03
2022-11-18T00:29:20.381Z,1.95
2022-11-18T00:33:19.090Z,1.88
2022-11-18T00:37:17.916Z,1.83
2022-11-18T00:41:50.629Z,1.69
2022-11-18T00:45:49.512Z,1.58
2022-11-18T00:49:48.568Z,1.50
2022-11-18T00:53:47.693Z,1.51
2022-11-18T00:57:46.391Z,1.60
2022-11-18T01:01:45.284Z,1.77
2022-11-18T01:05:58.262Z,1.90
2022-11-18T01:09:58.255Z,1.91
2022-11-18T01:13:57.094Z,1.89
2022-11-18T01:17:55.812Z,1.87
2022-11-18T01:21:54.413Z,1.93
2022-11-18T01:25:53.618Z,2.05
2022-11-18T01:29:52.495Z,2.18
2022-11-18T01:34:05.854Z,2.32
2022-11-18T01:38:05.395Z,2.47
2022-11-18T01:42:23.281Z,2.58
2022-11-18T01:45:42.961Z,2.53
2022-11-18T01:49:45.205Z,2.31
2022-11-18T01:53:47.346Z,2.10
2022-11-18T01:57:48.398Z,1.79
2022-11-18T02:01:47.697Z,1.71
2022-11-18T02:05:48.009Z,1.72
2022-11-18T02:09:47.128Z,1.81
2022-11-18T02:16:40.315Z,2.04
2022-11-18T02:20:43.248Z,2.26
2022-11-18T02:24:52.451Z,2.40
2022-11-18T02:29:01.230Z,2.46
2022-11-18T02:33:11.513Z,2.51
2022-11-18T02:37:12.452Z,2.60
2022-11-18T02:40:50.229Z,2.60
2022-11-18T02:44:53.075Z,2.61
2022-11-18T02:48:53.137Z,2.64
2022-11-18T02:52:57.590Z,2.67
2022-11-18T02:56:57.519Z,2.70
2022-11-18T03:00:58.494Z,2.78
2022-11-18T03:04:59.489Z,2.73
2022-11-18T03:09:17.797Z,2.68
2022-11-18T03:13:43.012Z,2.68
2022-11-18T03:17:53.029Z,2.70
2022-11-18T03:21:56.399Z,2.72
2022-11-18T03:26:21.734Z,2.69
2022-11-18T03:30:22.140Z,2.60
2022-11-18T03:34:31.894Z,2.55
2022-11-18T03:38:02.972Z,2.54
2022-11-18T03:42:11.598Z,2.58
2022-11-18T03:46:15.634Z,2.55
2022-11-18T03:50:17.755Z,2.49
2022-11-18T03:54:29.435Z,2.48
2022-11-18T03:58:48.932Z,2.44
2022-11-18T04:02:49.974Z,2.53
2022-11-18T04:06:51.258Z,2.59
2022-11-18T04:10:58.771Z,2.65
2022-11-18T04:15:00.192Z,2.71
2022-11-18T04:18:35.556Z,2.72
2022-11-18T04:22:34.512Z,2.73
2022-11-18T04:26:33.188Z,2.73
2022-11-18T04:30:32.629Z,2.72
2022-11-18T04:34:31.750Z,2.73
2022-11-18T04:38:30.469Z,2.77
2022-11-18T04:42:29.350Z,2.80
2022-11-18T04:46:28.488Z,2.78
2022-11-18T04:50:27.369Z,2.77
2022-11-18T04:54:27.233Z,2.74
2022-11-18T04:58:40.016Z,2.75
2022-11-18T05:02:38.851Z,2.71
2022-11-18T05:06:37.451Z,2.63
2022-11-18T05:10:38.208Z,2.53
2022-11-18T05:14:37.209Z,2.50
2022-11-18T05:18:36.171Z,2.47
2022-11-18T05:22:34.929Z,2.45
2022-11-18T05:26:33.966Z,2.42
2022-11-18T05:30:33.071Z,2.39
2022-11-18T05:34:32.168Z,2.39
2022-11-18T05:38:31.907Z,2.35
2022-11-18T05:42:49.593Z,2.32
2022-11-18T05:46:48.374Z,2.35
2022-11-18T05:50:48.299Z,2.38
2022-11-18T05:55:00.948Z,2.42
2022-11-18T05:58:59.564Z,2.44
2022-11-18T06:02:59.304Z,2.46
2022-11-18T06:07:01.235Z,2.45
2022-11-18T06:11:00.157Z,2.38
2022-11-18T06:15:11.575Z,2.31
2022-11-18T06:19:15.451Z,2.20
2022-11-18T06:23:15.392Z,2.16
2022-11-18T06:27:15.546Z,2.14
2022-11-18T06:31:14.471Z,2.14
2022-11-18T06:35:13.519Z,2.15
2022-11-18T06:39:12.661Z,2.03
2022-11-18T06:43:31.803Z,1.94
2022-11-18T06:47:30.767Z,1.88
2022-11-18T06:51:30.489Z,1.80
2022-11-18T06:55:29.821Z,1.76
2022-11-18T06:59:28.553Z,1.74
2022-11-18T07:03:27.477Z,1.71
2022-11-18T07:07:42.209Z,1.69
2022-11-18T07:11:41.913Z,1.68
2022-11-18T07:15:41.002Z,1.68
2022-11-18T07:19:54.148Z,1.67
2022-11-18T07:23:57.792Z,1.59
2022-11-18T07:28:08.203Z,1.47
2022-11-18T07:32:07.673Z,1.27
2022-11-18T07:36:08.346Z,1.23
2022-11-18T07:40:07.747Z,1.26
2022-11-18T07:44:07.637Z,1.15
2022-11-18T07:48:06.491Z,0.99
2022-11-18T07:52:05.552Z,1.04
2022-11-18T07:56:05.418Z,1.15
2022-11-18T08:00:04.836Z,1.31
2022-11-18T08:04:12.046Z,1.38
2022-11-18T08:08:11.527Z,1.37
2022-11-18T08:12:10.797Z,1.29
2022-11-18T08:16:14.590Z,1.07
2022-11-18T08:20:13.157Z,0.83
2022-11-18T08:24:25.737Z,0.57
2022-11-18T08:28:24.137Z,0.40
2022-11-18T08:32:23.714Z,0.29
2022-11-18T08:36:23.434Z,0.29
2022-11-18T08:40:23.352Z,0.35
2022-11-18T08:44:21.930Z,0.39
2022-11-18T08:48:20.834Z,0.75
2022-11-18T08:52:19.551Z,1.27
2022-11-18T08:56:19.571Z,1.18
2022-11-18T09:00:18.471Z,0.94
2022-11-18T09:04:17.171Z,0.69
2022-11-18T09:08:16.152Z,0.48
2022-11-18T09:12:17.751Z,0.44
2022-11-18T09:16:16.519Z,0.47
2022-11-18T09:20:14.512Z,0.54
2022-11-18T09:24:13.289Z,0.60
2022-11-18T09:28:12.270Z,0.56
2022-11-18T09:32:11.029Z,0.50
2022-11-18T09:36:15.735Z,0.66
2022-11-18T09:40:17.190Z,0.90
2022-11-18T09:44:19.587Z,0.86
2022-11-18T09:48:20.996Z,0.99
2022-11-18T09:52:19.773Z,1.04
2022-11-18T09:56:21.233Z,0.97
2022-11-18T10:00:22.276Z,0.92
2022-11-18T10:04:22.113Z,0.78
2022-11-18T10:08:24.152Z,0.72
2022-11-18T10:12:41.772Z,0.73
2022-11-18T10:16:59.028Z,0.72
2022-11-18T10:21:31.168Z,0.60
2022-11-18T10:25:30.014Z,0.46
2022-11-18T10:29:29.169Z,0.36
2022-11-18T10:33:28.962Z,0.41
2022-11-18T10:42:04.953Z,0.29
2022-11-18T10:46:25.216Z,0.01
2022-11-18T10:50:31.868Z,-0.08
2022-11-18T10:54:30.670Z,-0.06
2022-11-18T10:58:30.675Z,0.06
2022-11-18T11:02:41.841Z,0.10
2022-11-18T11:06:41.653Z,0.06
2022-11-18T11:10:40.340Z,0.13
2022-11-18T11:14:39.266Z,0.20
2022-11-18T11:18:41.828Z,0.28
2022-11-18T11:22:41.964Z,0.44
2022-11-18T11:31:05.410Z,0.21
2022-11-18T11:35:12.813Z,-0.07
2022-11-18T11:39:30.473Z,-0.31
2022-11-18T11:43:48.820Z,-0.22
2022-11-18T11:47:50.832Z,0.00
2022-11-18T11:51:53.972Z,0.19
2022-11-18T11:55:52.690Z,0.35
2022-11-18T11:59:52.199Z,0.45
2022-11-18T12:03:53.430Z,0.50
2022-11-18T12:08:12.421Z,0.62
2022-11-18T12:12:36.007Z,0.73
2022-11-18T12:16:41.359Z,0.92
2022-11-18T12:20:42.493Z,1.06
2022-11-18T12:24:42.733Z,1.09
2022-11-18T12:28:42.875Z,1.07
2022-11-18T12:32:43.747Z,0.85
2022-11-18T12:36:43.112Z,0.56
2022-11-18T12:40:48.810Z,0.23
2022-11-18T12:44:51.042Z,-0.04
2022-11-18T12:48:50.294Z,-0.22
2022-11-18T12:52:49.395Z,-0.29
2022-11-18T12:56:49.731Z,-0.29
2022-11-18T13:00:54.361Z,-0.21
2022-11-18T13:05:12.309Z,-0.11
2022-11-18T13:09:14.387Z,0.03
2022-11-18T13:13:23.093Z,0.12
2022-11-18T13:17:44.132Z,0.20
2022-11-18T13:22:12.273Z,0.27
2022-11-18T13:26:32.124Z,0.31
2022-11-18T13:30:33.508Z,0.37
2022-11-18T13:34:39.432Z,0.46
2022-11-18T13:38:38.536Z,0.47
2022-11-18T13:42:44.795Z,0.27
2022-11-18T13:46:44.937Z,0.07
2022-11-18T13:50:51.592Z,-0.03
2022-11-18T13:54:51.983Z,-0.07
2022-11-18T13:59:20.543Z,-0.12
2022-11-18T14:02:29.000Z,-0.17
2022-11-18T14:06:32.162Z,-0.16
2022-11-18T14:10:45.968Z,-0.21
2022-11-18T14:14:45.493Z,-0.25
2022-11-18T14:19:04.502Z,-0.24
2022-11-18T14:22:24.612Z,-0.21
2022-11-18T14:26:38.770Z,-0.15
2022-11-18T14:30:42.075Z,-0.03
2022-11-18T14:35:00.868Z,0.11
2022-11-18T14:42:44.148Z,0.25
2022-11-18T14:46:45.236Z,0.21
2022-11-18T14:50:48.341Z,0.12
2022-11-18T14:54:26.764Z,0.07
2022-11-18T14:58:27.111Z,-0.03
2022-11-18T15:02:26.641Z,-0.20
2022-11-18T15:06:26.416Z,-0.36
2022-11-18T15:10:25.556Z,-0.52
2022-11-18T15:14:38.786Z,-0.63
2022-11-18T15:18:37.692Z,-0.60
2022-11-18T15:22:36.747Z,-0.53
2022-11-18T15:26:38.549Z,-0.54
2022-11-18T15:30:37.593Z,-0.58
2022-11-18T15:34:36.927Z,-0.58
2022-11-18T15:38:36.352Z,-0.58
2022-11-18T15:42:42.322Z,-0.56
2022-11-18T15:46:48.270Z,-0.52
2022-11-18T15:50:47.166Z,-0.46
2022-11-18T15:54:48.305Z,-0.37
2022-11-18T15:58:24.068Z,-0.30
2022-11-18T16:02:23.137Z,-0.27
2022-11-18T16:06:36.650Z,-0.27
2022-11-18T16:10:54.411Z,-0.30
2022-11-18T16:15:13.153Z,-0.48
2022-11-18T16:19:13.490Z,-0.65
2022-11-18T16:23:11.974Z,-0.83
2022-11-18T16:27:10.773Z,-0.97
2022-11-18T16:31:28.174Z,-1.03
2022-11-18T16:35:28.382Z,-0.96
2022-11-18T16:39:28.096Z,-0.90
2022-11-18T16:43:27.307Z,-0.86
2022-11-18T16:47:26.134Z,-0.80
2022-11-18T16:51:26.320Z,-0.70
2022-11-18T16:55:25.379Z,-0.58
2022-11-18T16:59:26.023Z,-0.60
2022-11-18T17:03:25.268Z,-0.66
2022-11-18T17:07:24.453Z,-0.65
2022-11-18T17:11:23.255Z,-0.59
2022-11-18T17:15:21.927Z,-0.53
2022-11-18T17:19:23.455Z,-0.61
2022-11-18T17:23:23.075Z,-0.79
2022-11-18T17:27:22.156Z,-0.96
2022-11-18T17:31:22.696Z,-0.97
2022-11-18T17:35:22.167Z,-0.95
2022-11-18T17:39:21.822Z,-0.94
2022-11-18T17:43:20.916Z,-0.95
2022-11-18T17:47:19.834Z,-0.94
2022-11-18T17:51:20.222Z,-0.95
2022-11-18T17:55:18.799Z,-0.96
2022-11-18T17:59:18.268Z,-0.98
2022-11-18T18:03:17.669Z,-0.95
2022-11-18T18:07:16.997Z,-0.93
2022-11-18T18:11:17.370Z,-0.97
2022-11-18T18:15:16.228Z,-1.12
2022-11-18T18:19:17.927Z,-1.21
2022-11-18T18:23:17.166Z,-1.33
2022-11-18T18:27:16.328Z,-1.42
2022-11-18T18:31:30.092Z,-1.44
2022-11-18T18:35:29.000Z,-1.44
2022-11-18T18:39:28.694Z,-1.41
2022-11-18T18:43:27.926Z,-1.26
2022-11-18T18:47:26.849Z,-1.20
2022-11-18T18:51:27.050Z,-1.16
2022-11-18T18:55:26.614Z,-1.06
2022-11-18T18:59:39.906Z,-0.96
2022-11-18T19:03:39.961Z,-0.90
2022-11-18T19:07:38.945Z,-0.87
2022-11-18T19:11:57.543Z,-0.87
2022-11-18T19:15:56.376Z,-0.94
2022-11-18T19:20:16.113Z,-0.94
2022-11-18T19:23:32.931Z,-0.89
2022-11-18T19:27:45.689Z,-0.83
2022-11-18T19:31:44.377Z,-0.80
2022-11-18T19:35:43.444Z,-0.74
2022-11-18T19:39:41.839Z,-0.70
2022-11-18T19:43:40.731Z,-0.68
2022-11-18T19:47:39.857Z,-0.67
2022-11-18T19:51:38.618Z,-0.69
2022-11-18T19:55:37.925Z,-0.70
2022-11-18T19:59:37.290Z,-0.72
2022-11-18T20:03:36.108Z,-0.76
2022-11-18T20:07:35.086Z,-0.79
2022-11-18T20:11:33.708Z,-0.81
2022-11-18T20:15:32.349Z,-0.79
2022-11-18T20:19:30.958Z,-0.75
2022-11-18T20:23:29.781Z,-0.72
2022-11-18T20:27:29.409Z,-0.69
2022-11-18T20:31:29.328Z,-0.69
2022-11-18T20:35:29.486Z,-0.71
2022-11-18T20:39:29.085Z,-0.69
2022-11-18T20:43:29.690Z,-0.69
2022-11-18T20:47:28.554Z,-0.72
2022-11-18T20:51:28.445Z,-0.84
2022-11-18T20:55:27.453Z,-0.95
2022-11-18T20:59:26.330Z,-1.02
2022-11-18T21:03:25.566Z,-1.02
2022-11-18T21:07:24.895Z,-1.00
2022-11-18T21:11:24.123Z,-0.95
2022-11-18T21:15:23.425Z,-0.87
2022-11-18T21:19:23.095Z,-0.79
2022-11-18T21:23:22.172Z,-0.78
2022-11-18T21:27:20.900Z,-0.89
2022-11-18T21:31:23.402Z,-0.97
2022-11-18T21:34:57.464Z,-0.99
2022-11-18T21:38:59.838Z,-0.98
2022-11-18T21:42:58.811Z,-0.98
2022-11-18T21:46:57.850Z,-0.99
2022-11-18T21:51:00.787Z,-0.98
2022-11-18T21:55:02.077Z,-1.01
2022-11-18T21:58:38.002Z,-1.11
2022-11-18T22:02:36.641Z,-1.14
2022-11-18T22:06:35.582Z,-1.15
2022-11-18T22:10:34.865Z,-1.18
2022-11-18T22:14:33.941Z,-1.22
2022-11-18T22:18:33.811Z,-1.25
2022-11-18T22:22:33.125Z,-1.32
2022-11-18T22:26:31.957Z,-1.39
2022-11-18T22:30:31.460Z,-1.46
2022-11-18T22:34:30.766Z,-1.54
2022-11-18T22:38:29.922Z,-1.62
2022-11-18T22:42:47.501Z,-1.74
2022-11-18T22:46:46.672Z,-1.80
2022-11-18T22:50:55.803Z,-1.83
2022-11-18T22:54:54.426Z,-1.89
2022-11-18T22:58:53.805Z,-1.88
2022-11-18T23:02:53.413Z,-1.81
2022-11-18T23:06:52.736Z,-1.80
2022-11-18T23:10:51.803Z,-1.79
2022-11-18T23:14:50.714Z,-1.80
2022-11-18T23:18:50.474Z,-1.74
2022-11-18T23:22:50.325Z,-1.70
2022-11-18T23:26:49.705Z,-1.76
2022-11-18T23:30:48.549Z,-1.76
2022-11-18T23:34:49.252Z,-1.75
2022-11-18T23:38:24.911Z,-1.72
2022-11-18T23:42:23.461Z,-1.66
2022-11-18T23:46:22.550Z,-1.63
2022-11-18T23:50:21.494Z,-1.58
2022-11-18T23:54:20.187Z,-1.50
2022-11-18T23:58:19.365Z,-1.51
